createdAt,value
2022-10-23T00:00:30.084Z,13.02
2022-10-23T00:05:32.066Z,13.01
2022-10-23T00:10:33.772Z,13.04
2022-10-23T00:15:36.620Z,13.06
2022-10-23T00:20:38.166Z,13.05
2022-10-23T00:25:39.662Z,13.07
2022-10-23T00:30:41.256Z,13.04
2022-10-23T00:35:43.319Z,13.13
2022-10-23T00:40:45.371Z,13.04
2022-10-23T00:45:47.298Z,12.98
2022-10-23T00:50:49.704Z,13.02
2022-10-23T00:55:52.537Z,13.06
2022-10-23T01:00:56.584Z,13.08
2022-10-23T01:06:07.594Z,12.99
2022-10-23T01:11:20.299Z,12.94
2022-10-23T01:17:02.831Z,12.96
2022-10-23T01:22:42.577Z,12.96
2022-10-23T01:27:50.389Z,12.94
2022-10-23T01:33:02.416Z,12.87
2022-10-23T01:38:28.036Z,12.89
2022-10-23T01:44:04.910Z,12.86
2022-10-23T01:49:12.805Z,12.34
2022-10-23T01:54:19.308Z,12.35
2022-10-23T01:59:29.519Z,12.63
2022-10-23T02:04:38.225Z,12.90
2022-10-23T02:09:40.169Z,13.14
2022-10-23T02:14:53.833Z,13.21
2022-10-23T02:20:02.596Z,13.44
2022-10-23T02:25:15.230Z,13.49
2022-10-23T02:30:20.060Z,13.50
2022-10-23T02:35:33.507Z,13.57
2022-10-23T02:40:45.989Z,13.64
2022-10-23T02:46:03.988Z,13.63
2022-10-23T02:51:22.165Z,13.70
2022-10-23T02:56:36.601Z,13.88
2022-10-23T03:01:59.182Z,13.98
2022-10-23T03:07:01.176Z,13.97
2022-10-23T03:12:03.441Z,14.01
2022-10-23T03:17:08.022Z,13.95
2022-10-23T03:22:09.539Z,13.92
2022-10-23T03:27:11.103Z,13.98
2022-10-23T03:32:13.165Z,14.04
2022-10-23T03:37:14.740Z,14.04
2022-10-23T03:42:16.574Z,13.98
2022-10-23T03:47:18.744Z,13.93
2022-10-23T03:52:20.280Z,14.00
2022-10-23T03:57:21.853Z,13.95
2022-10-23T04:02:24.343Z,13.90
2022-10-23T04:07:27.119Z,13.97
2022-10-23T04:12:28.905Z,14.08
2022-10-23T04:17:30.492Z,14.09
2022-10-23T04:22:32.205Z,13.98
2022-10-23T04:27:35.065Z,13.93
2022-10-23T04:32:36.728Z,13.89
2022-10-23T04:37:39.621Z,13.90
2022-10-23T04:42:41.973Z,13.88
2022-10-23T04:47:43.894Z,13.81
2022-10-23T04:52:45.563Z,13.75
2022-10-23T04:58:16.201Z,13.60
2022-10-23T05:03:20.259Z,13.48
2022-10-23T05:08:23.440Z,13.43
2022-10-23T05:13:43.667Z,13.49
2022-10-23T05:18:47.927Z,13.64
2022-10-23T05:23:50.202Z,13.81
2022-10-23T05:28:52.027Z,13.81
2022-10-23T05:33:56.252Z,13.86
2022-10-23T05:38:58.884Z,13.90
2022-10-23T05:44:01.237Z,13.95
2022-10-23T05:49:40.982Z,13.94
2022-10-23T05:55:05.623Z,14.07
2022-10-23T06:00:25.778Z,13.89
2022-10-23T06:05:50.987Z,13.68
2022-10-23T06:11:09.868Z,13.56
2022-10-23T06:16:16.133Z,13.59
2022-10-23T06:21:18.265Z,13.81
2022-10-23T06:26:22.635Z,14.07
2022-10-23T06:31:34.038Z,14.10
2022-10-23T06:36:37.037Z,14.18
2022-10-23T06:42:06.701Z,14.28
2022-10-23T06:47:28.496Z,14.54
2022-10-23T06:52:48.692Z,14.60
2022-10-23T06:57:53.319Z,14.76
2022-10-23T07:02:55.054Z,14.77
2022-10-23T07:07:57.619Z,14.77
2022-10-23T07:13:02.754Z,14.78
2022-10-23T07:18:24.594Z,14.94
2022-10-23T07:23:48.838Z,15.04
2022-10-23T07:28:50.539Z,15.05
2022-10-23T07:33:55.731Z,15.15
2022-10-23T07:38:57.501Z,15.20
2022-10-23T07:43:59.877Z,15.24
2022-10-23T07:49:02.058Z,15.28
2022-10-23T07:54:04.322Z,15.25
2022-10-23T07:59:24.424Z,15.24
2022-10-23T08:04:29.374Z,15.75
2022-10-23T08:09:39.558Z,15.63
2022-10-23T08:14:44.010Z,15.71
2022-10-23T08:19:46.324Z,15.89
2022-10-23T08:24:48.172Z,15.99
2022-10-23T08:29:49.739Z,16.36
2022-10-23T08:34:51.382Z,16.29
2022-10-23T08:39:53.504Z,16.25
2022-10-23T08:45:18.266Z,16.36
2022-10-23T08:50:24.843Z,17.07
2022-10-23T08:55:37.213Z,17.85
2022-10-23T09:00:38.818Z,17.60
2022-10-23T09:05:55.141Z,17.32
2022-10-23T09:11:00.484Z,17.21
2022-10-23T09:16:06.949Z,17.30
2022-10-23T09:21:09.923Z,17.73
2022-10-23T09:26:17.086Z,18.09
2022-10-23T09:31:19.386Z,18.39
2022-10-23T09:36:22.277Z,18.56
2022-10-23T09:41:28.786Z,19.31
2022-10-23T09:46:48.189Z,19.75
2022-10-23T09:52:21.756Z,19.95
2022-10-23T09:57:41.796Z,19.87
2022-10-23T10:03:06.819Z,19.94
2022-10-23T10:08:20.607Z,19.39
2022-10-23T10:13:34.168Z,19.53
2022-10-23T10:19:05.207Z,19.36
2022-10-23T10:24:17.707Z,18.76
2022-10-23T10:29:40.590Z,18.56
2022-10-23T10:34:59.302Z,18.61
2022-10-23T10:40:24.573Z,18.41
2022-10-23T10:45:49.450Z,18.42
2022-10-23T10:51:36.494Z,18.47
2022-10-23T10:56:45.254Z,18.53
2022-10-23T11:02:20.457Z,18.39
2022-10-23T11:07:26.799Z,18.55
2022-10-23T11:12:30.676Z,18.52
2022-10-23T11:17:39.129Z,18.38
2022-10-23T11:22:57.819Z,18.29
2022-10-23T11:28:34.279Z,18.01
2022-10-23T11:33:50.449Z,17.99
2022-10-23T11:38:52.003Z,18.12
2022-10-23T11:43:59.461Z,18.42
2022-10-23T11:49:02.375Z,19.11
2022-10-23T11:54:09.967Z,19.23
2022-10-23T11:59:34.803Z,19.21
2022-10-23T12:04:48.939Z,19.45
2022-10-23T12:09:58.913Z,19.43
2022-10-23T12:15:12.749Z,19.76
2022-10-23T12:20:14.230Z,19.98
2022-10-23T12:25:23.905Z,19.98
2022-10-23T12:30:32.641Z,19.60
2022-10-23T12:35:39.869Z,19.82
2022-10-23T12:40:45.952Z,19.86
2022-10-23T12:45:47.428Z,19.73
2022-10-23T12:50:50.715Z,19.79
2022-10-23T12:56:05.036Z,19.71
2022-10-23T13:01:07.183Z,19.63
2022-10-23T13:06:11.354Z,19.72
2022-10-23T13:11:17.826Z,19.93
2022-10-23T13:16:25.344Z,20.05
2022-10-23T13:21:28.789Z,19.74
2022-10-23T13:26:38.254Z,19.76
2022-10-23T13:31:39.781Z,19.80
2022-10-23T13:36:53.430Z,19.75
2022-10-23T13:41:55.733Z,19.84
2022-10-23T13:46:57.330Z,19.90
2022-10-23T13:51:58.881Z,19.88
2022-10-23T13:57:00.441Z,19.80
2022-10-23T14:02:02.306Z,19.76
2022-10-23T14:07:03.822Z,19.79
2022-10-23T14:12:05.561Z,19.73
2022-10-23T14:17:07.146Z,19.76
2022-10-23T14:22:08.683Z,19.71
2022-10-23T14:27:10.227Z,19.66
2022-10-23T14:32:11.752Z,19.61
2022-10-23T14:37:13.304Z,19.69
2022-10-23T14:42:14.963Z,19.64
2022-10-23T14:47:17.959Z,19.68
2022-10-23T14:52:19.879Z,19.62
2022-10-23T14:57:22.088Z,19.74
2022-10-23T15:02:23.779Z,19.79
2022-10-23T15:07:25.422Z,19.64
2022-10-23T15:12:26.944Z,19.72
2022-10-23T15:17:28.535Z,19.71
2022-10-23T15:22:30.258Z,19.64
2022-10-23T15:27:31.991Z,19.45
2022-10-23T15:32:33.519Z,19.37
2022-10-23T15:37:35.651Z,19.34
2022-10-23T15:42:37.172Z,19.27
2022-10-23T15:47:38.735Z,19.32
2022-10-23T15:52:40.270Z,19.11
2022-10-23T15:57:41.959Z,19.03
2022-10-23T16:02:44.044Z,19.08
2022-10-23T16:07:45.767Z,19.03
2022-10-23T16:12:47.466Z,18.88
2022-10-23T16:17:49.108Z,18.63
2022-10-23T16:22:50.689Z,18.75
2022-10-23T16:27:52.217Z,18.57
2022-10-23T16:32:53.735Z,18.36
2022-10-23T16:37:55.364Z,17.42
2022-10-23T16:42:58.455Z,17.23
2022-10-23T16:48:07.003Z,17.17
2022-10-23T16:53:08.489Z,17.16
2022-10-23T16:58:10.118Z,17.15
2022-10-23T17:03:11.688Z,16.88
2022-10-23T17:08:13.243Z,16.89
2022-10-23T17:13:14.782Z,16.76
2022-10-23T17:18:16.275Z,16.82
2022-10-23T17:23:17.874Z,17.07
2022-10-23T17:28:19.491Z,17.11
2022-10-23T17:33:21.169Z,17.05
2022-10-23T17:38:22.742Z,17.11
2022-10-23T17:43:24.293Z,17.10
2022-10-23T17:48:26.434Z,16.92
2022-10-23T17:53:28.291Z,16.90
2022-10-23T17:58:30.256Z,16.89
2022-10-23T18:03:31.961Z,16.88
2022-10-23T18:08:34.102Z,16.80
2022-10-23T18:13:36.702Z,16.80
2022-10-23T18:18:40.027Z,16.64
2022-10-23T18:23:42.340Z,16.60
2022-10-23T18:28:46.231Z,16.47
2022-10-23T18:33:47.925Z,16.37
2022-10-23T18:38:50.138Z,16.24
2022-10-23T18:43:52.790Z,16.16
2022-10-23T18:48:54.564Z,15.96
2022-10-23T18:53:56.596Z,15.91
2022-10-23T18:59:00.617Z,15.94
2022-10-23T19:04:03.202Z,16.05
2022-10-23T19:09:07.011Z,16.19
2022-10-23T19:14:09.234Z,16.26
2022-10-23T19:19:19.814Z,16.22
2022-10-23T19:24:31.747Z,16.23
2022-10-23T19:29:33.761Z,16.10
2022-10-23T19:34:35.526Z,16.07
2022-10-23T19:39:37.180Z,15.94
2022-10-23T19:44:38.723Z,15.94
2022-10-23T19:49:40.489Z,15.86
2022-10-23T19:54:42.045Z,15.86
2022-10-23T19:59:47.589Z,15.83
2022-10-23T20:04:49.099Z,15.92
2022-10-23T20:09:50.646Z,15.90
2022-10-23T20:14:52.265Z,16.03
2022-10-23T20:19:53.848Z,16.16
2022-10-23T20:24:55.485Z,16.17
2022-10-23T20:29:57.028Z,16.10
2022-10-23T20:34:58.613Z,16.06
2022-10-23T20:40:00.608Z,16.09
2022-10-23T20:45:02.214Z,16.00
2022-10-23T20:50:04.007Z,16.01
2022-10-23T20:55:05.836Z,16.17
2022-10-23T21:00:08.040Z,16.18
2022-10-23T21:05:09.603Z,16.40
2022-10-23T21:10:11.149Z,16.40
2022-10-23T21:15:12.720Z,16.45
2022-10-23T21:20:14.492Z,16.50
2022-10-23T21:25:16.103Z,16.52
2022-10-23T21:30:17.626Z,16.55
2022-10-23T21:35:19.187Z,16.47
2022-10-23T21:40:20.715Z,16.33
2022-10-23T21:45:22.512Z,16.29
2022-10-23T21:50:24.012Z,15.98
2022-10-23T21:55:27.816Z,15.99
2022-10-23T22:00:29.353Z,15.99
2022-10-23T22:05:30.855Z,15.99
2022-10-23T22:10:34.248Z,15.87
2022-10-23T22:15:35.809Z,15.64
2022-10-23T22:20:37.326Z,15.47
2022-10-23T22:25:38.860Z,15.34
2022-10-23T22:30:40.344Z,15.28
2022-10-23T22:35:42.585Z,15.40
2022-10-23T22:40:46.612Z,15.42
2022-10-23T22:45:48.500Z,15.36
2022-10-23T22:50:52.761Z,15.33
2022-10-23T22:55:55.758Z,15.44
2022-10-23T23:01:07.133Z,15.41
2022-10-23T23:06:09.359Z,15.27
2022-10-23T23:11:13.221Z,15.40
2022-10-23T23:16:27.030Z,15.60
2022-10-23T23:21:29.560Z,15.77
2022-10-23T23:26:31.047Z,15.73
2022-10-23T23:31:32.564Z,15.75
2022-10-23T23:36:34.139Z,15.77
2022-10-23T23:41:35.635Z,15.77
2022-10-23T23:46:37.443Z,15.79
2022-10-23T23:51:38.999Z,15.84
2022-10-23T23:56:40.571Z,15.88
